Wetterdaten: Woche 02.09.13 - 08.09.13 (KW36)
Datum Zeit Temperatur Luftfeuchte Luftdruck Niederschlag Windrichtung Sonnenschein Solar Wind
02.09.2013 00:00 9,8 C 82 % 1025,4 hPa 0,0 l/m N 0,00 h 0 W/m 0,0 km/h (0 Bft)
02.09.2013 01:00 9,2 C 84 % 1025,2 hPa 0,0 l/m N 0,00 h 0 W/m 0,3 km/h (0 Bft)
02.09.2013 02:00 8,7 C 86 % 1025,3 hPa 0,0 l/m N 0,00 h 0 W/m 0,4 km/h (0 Bft)
02.09.2013 03:00 8,2 C 88 % 1025,2 hPa 0,0 l/m N 0,00 h 0 W/m 0,7 km/h (0 Bft)
02.09.2013 04:00 7,9 C 90 % 1025,0 hPa 0,0 l/m N 0,00 h 0 W/m 0,9 km/h (0 Bft)
02.09.2013 05:00 8,1 C 92 % 1024,9 hPa 0,0 l/m N 0,00 h 0 W/m 0,3 km/h (0 Bft)
02.09.2013 06:00 8,4 C 92 % 1024,8 hPa 0,0 l/m N 0,00 h 6 W/m 0,7 km/h (0 Bft)
02.09.2013 07:00 8,4 C 93 % 1025,0 hPa 0,0 l/m N 0,00 h 18 W/m 0,1 km/h (0 Bft)
02.09.2013 08:00 8,9 C 94 % 1025,3 hPa 0,0 l/m N 0,00 h 54 W/m 1,6 km/h (1 Bft)
02.09.2013 09:00 10,4 C 92 % 1025,5 hPa 0,0 l/m N 0,00 h 86 W/m 1,6 km/h (1 Bft)
02.09.2013 10:00 12,7 C 79 % 1025,9 hPa 0,0 l/m W 0,17 h 215 W/m 8,3 km/h (2 Bft)
02.09.2013 11:00 14,9 C 71 % 1025,7 hPa 0,0 l/m SW 0,00 h 275 W/m 12,8 km/h (3 Bft)
02.09.2013 12:00 16,3 C 61 % 1025,5 hPa 0,0 l/m W-SW 0,08 h 331 W/m 15,6 km/h (3 Bft)
02.09.2013 13:00 17,7 C 56 % 1025,1 hPa 0,0 l/m W 0,42 h 369 W/m 12,2 km/h (2 Bft)
02.09.2013 14:00 19,2 C 49 % 1024,7 hPa 0,0 l/m W-SW 0,67 h 464 W/m 16,1 km/h (3 Bft)
02.09.2013 15:00 20,7 C 48 % 1024,4 hPa 0,0 l/m SW 1,00 h 680 W/m 17,6 km/h (3 Bft)
02.09.2013 16:00 22,0 C 46 % 1024,0 hPa 0,0 l/m S-SW 1,00 h 582 W/m 18,9 km/h (3 Bft)
02.09.2013 17:00 21,8 C 47 % 1023,8 hPa 0,0 l/m SW 1,00 h 416 W/m 18,5 km/h (3 Bft)
02.09.2013 18:00 21,1 C 47 % 1023,9 hPa 0,0 l/m W-SW 0,92 h 220 W/m 16,1 km/h (3 Bft)
02.09.2013 19:00 18,9 C 54 % 1024,0 hPa 0,0 l/m SW 0,17 h 19 W/m 10,3 km/h (2 Bft)
02.09.2013 20:00 16,5 C 63 % 1024,6 hPa 0,0 l/m W-SW 0,00 h 0 W/m 6,8 km/h (2 Bft)
02.09.2013 21:00 15,5 C 70 % 1025,1 hPa 0,0 l/m W-SW 0,00 h 0 W/m 4,5 km/h (1 Bft)
02.09.2013 22:00 14,3 C 75 % 1025,7 hPa 0,0 l/m N 0,00 h 0 W/m 0,4 km/h (0 Bft)
02.09.2013 23:00 12,9 C 80 % 1025,8 hPa 0,0 l/m N 0,00 h 0 W/m 0,1 km/h (0 Bft)
03.09.2013 00:00 12,1 C 85 % 1026,0 hPa 0,0 l/m N 0,00 h 0 W/m 0,0 km/h (0 Bft)
03.09.2013 01:00 11,9 C 87 % 1025,9 hPa 0,0 l/m N 0,00 h 0 W/m 0,3 km/h (0 Bft)
03.09.2013 02:00 11,9 C 88 % 1025,8 hPa 0,0 l/m N 0,00 h 0 W/m 0,0 km/h (0 Bft)
03.09.2013 03:00 12,0 C 89 % 1025,8 hPa 0,0 l/m N 0,00 h 0 W/m 0,1 km/h (0 Bft)
03.09.2013 04:00 12,1 C 89 % 1025,7 hPa 0,0 l/m N 0,00 h 0 W/m 0,0 km/h (0 Bft)
03.09.2013 05:00 12,2 C 90 % 1025,6 hPa 0,0 l/m N 0,00 h 0 W/m 0,0 km/h (0 Bft)
03.09.2013 06:00 12,1 C 91 % 1025,6 hPa 0,0 l/m N 0,00 h 6 W/m 0,0 km/h (0 Bft)
03.09.2013 07:00 11,7 C 92 % 1025,5 hPa 0,0 l/m N 0,00 h 44 W/m 0,4 km/h (0 Bft)
03.09.2013 08:00 13,5 C 89 % 1025,5 hPa 0,0 l/m N 0,92 h 207 W/m 1,1 km/h (0 Bft)
03.09.2013 09:00 16,2 C 74 % 1025,5 hPa 0,0 l/m N 1,00 h 380 W/m 2,1 km/h (1 Bft)
03.09.2013 10:00 18,0 C 64 % 1025,7 hPa 0,0 l/m SW 1,00 h 520 W/m 3,3 km/h (1 Bft)
03.09.2013 11:00 19,2 C 58 % 1025,6 hPa 0,0 l/m SW 1,00 h 663 W/m 5,5 km/h (1 Bft)
03.09.2013 12:00 21,1 C 54 % 1025,2 hPa 0,0 l/m S-SW 1,00 h 739 W/m 6,7 km/h (2 Bft)
03.09.2013 13:00 23,2 C 50 % 1024,8 hPa 0,0 l/m S-SW 1,00 h 770 W/m 6,1 km/h (2 Bft)
03.09.2013 14:00 25,1 C 47 % 1024,1 hPa 0,0 l/m S 1,00 h 743 W/m 8,0 km/h (2 Bft)
03.09.2013 15:00 26,5 C 45 % 1023,7 hPa 0,0 l/m N-NO 1,00 h 667 W/m 10,1 km/h (2 Bft)
03.09.2013 16:00 26,8 C 44 % 1023,4 hPa 0,0 l/m NO 1,00 h 557 W/m 9,3 km/h (2 Bft)
03.09.2013 17:00 26,8 C 46 % 1022,9 hPa 0,0 l/m N-NO 1,00 h 405 W/m 8,2 km/h (2 Bft)
03.09.2013 18:00 26,3 C 48 % 1022,7 hPa 0,0 l/m N-NO 1,00 h 219 W/m 8,7 km/h (2 Bft)
03.09.2013 19:00 24,3 C 55 % 1022,8 hPa 0,0 l/m N-NO 0,00 h 21 W/m 10,0 km/h (2 Bft)
03.09.2013 20:00 21,5 C 64 % 1023,3 hPa 0,0 l/m NO 0,00 h 0 W/m 9,8 km/h (2 Bft)
03.09.2013 21:00 19,6 C 70 % 1023,9 hPa 0,0 l/m N-NO 0,00 h 0 W/m 5,2 km/h (1 Bft)
03.09.2013 22:00 17,9 C 76 % 1024,0 hPa 0,0 l/m N 0,00 h 0 W/m 1,9 km/h (1 Bft)
03.09.2013 23:00 16,4 C 80 % 1024,0 hPa 0,0 l/m N 0,00 h 0 W/m 1,6 km/h (1 Bft)
04.09.2013 00:00 15,3 C 84 % 1023,8 hPa 0,0 l/m N 0,00 h 0 W/m 1,7 km/h (1 Bft)
04.09.2013 01:00 14,6 C 87 % 1023,4 hPa 0,0 l/m N 0,00 h 0 W/m 2,3 km/h (1 Bft)
04.09.2013 02:00 14,1 C 88 % 1022,9 hPa 0,0 l/m N 0,00 h 0 W/m 2,8 km/h (1 Bft)
04.09.2013 03:00 13,6 C 89 % 1022,5 hPa 0,0 l/m N-NO 0,00 h 0 W/m 3,3 km/h (1 Bft)
04.09.2013 04:00 13,2 C 91 % 1022,3 hPa 0,0 l/m N-NO 0,00 h 0 W/m 5,3 km/h (1 Bft)
04.09.2013 05:00 12,8 C 91 % 1021,8 hPa 0,0 l/m N 0,00 h 0 W/m 3,5 km/h (1 Bft)
04.09.2013 06:00 12,3 C 92 % 1021,7 hPa 0,0 l/m N 0,00 h 6 W/m 4,9 km/h (1 Bft)
04.09.2013 07:00 12,4 C 93 % 1021,8 hPa 0,0 l/m N 0,00 h 44 W/m 3,3 km/h (1 Bft)
04.09.2013 08:00 13,8 C 91 % 1021,7 hPa 0,0 l/m N 0,83 h 199 W/m 6,7 km/h (2 Bft)
04.09.2013 09:00 16,3 C 84 % 1021,6 hPa 0,0 l/m N 1,00 h 373 W/m 4,8 km/h (1 Bft)
04.09.2013 10:00 18,7 C 77 % 1021,6 hPa 0,0 l/m N-NO 1,00 h 511 W/m 7,5 km/h (2 Bft)
04.09.2013 11:00 20,6 C 72 % 1021,3 hPa 0,0 l/m N-NO 1,00 h 656 W/m 8,7 km/h (2 Bft)
04.09.2013 12:00 22,9 C 63 % 1020,8 hPa 0,0 l/m NO 1,00 h 736 W/m 11,4 km/h (2 Bft)
04.09.2013 13:00 25,0 C 53 % 1020,1 hPa 0,0 l/m O-NO 1,00 h 765 W/m 12,5 km/h (3 Bft)
04.09.2013 14:00 26,4 C 48 % 1019,6 hPa 0,0 l/m O-SO 1,00 h 740 W/m 13,3 km/h (3 Bft)
04.09.2013 15:00 27,5 C 45 % 1019,1 hPa 0,0 l/m O-NO 1,00 h 662 W/m 13,3 km/h (3 Bft)
04.09.2013 16:00 27,8 C 44 % 1018,7 hPa 0,0 l/m O-NO 1,00 h 547 W/m 12,4 km/h (3 Bft)
04.09.2013 17:00 27,6 C 45 % 1018,2 hPa 0,0 l/m O 1,00 h 397 W/m 12,1 km/h (2 Bft)
04.09.2013 18:00 26,7 C 47 % 1017,8 hPa 0,0 l/m O 0,92 h 211 W/m 12,0 km/h (2 Bft)
04.09.2013 19:00 24,8 C 52 % 1017,5 hPa 0,0 l/m O 0,08 h 19 W/m 7,8 km/h (2 Bft)
04.09.2013 20:00 22,1 C 63 % 1017,6 hPa 0,0 l/m N 0,00 h 0 W/m 0,7 km/h (0 Bft)
04.09.2013 21:00 19,2 C 71 % 1017,5 hPa 0,0 l/m N 0,00 h 0 W/m 0,5 km/h (0 Bft)
04.09.2013 22:00 17,6 C 77 % 1017,6 hPa 0,0 l/m N 0,00 h 0 W/m 2,3 km/h (1 Bft)
04.09.2013 23:00 16,7 C 81 % 1017,6 hPa 0,0 l/m N 0,00 h 0 W/m 2,5 km/h (1 Bft)
05.09.2013 00:00 16,1 C 83 % 1017,4 hPa 0,0 l/m O-NO 0,00 h 0 W/m 2,7 km/h (1 Bft)
05.09.2013 01:00 15,5 C 86 % 1017,1 hPa 0,0 l/m N 0,00 h 0 W/m 3,2 km/h (1 Bft)
05.09.2013 02:00 14,9 C 87 % 1016,9 hPa 0,0 l/m N 0,00 h 0 W/m 1,6 km/h (1 Bft)
05.09.2013 03:00 14,3 C 88 % 1016,5 hPa 0,0 l/m N 0,00 h 0 W/m 0,0 km/h (0 Bft)
05.09.2013 04:00 13,4 C 89 % 1016,1 hPa 0,0 l/m N 0,00 h 0 W/m 0,3 km/h (0 Bft)
05.09.2013 05:00 12,7 C 91 % 1016,0 hPa 0,0 l/m N 0,00 h 0 W/m 1,1 km/h (0 Bft)
05.09.2013 06:00 12,5 C 92 % 1016,1 hPa 0,0 l/m N 0,08 h 7 W/m 0,4 km/h (0 Bft)
05.09.2013 07:00 12,8 C 94 % 1016,0 hPa 0,0 l/m N 0,00 h 42 W/m 0,4 km/h (0 Bft)
05.09.2013 08:00 14,3 C 95 % 1015,8 hPa 0,0 l/m O-NO 0,83 h 191 W/m 3,7 km/h (1 Bft)
05.09.2013 09:00 16,7 C 87 % 1015,6 hPa 0,0 l/m O-NO 1,00 h 362 W/m 4,0 km/h (1 Bft)
05.09.2013 10:00 19,0 C 81 % 1015,4 hPa 0,0 l/m O 0,92 h 494 W/m 4,5 km/h (1 Bft)
05.09.2013 11:00 20,8 C 77 % 1015,0 hPa 0,0 l/m SO 1,00 h 642 W/m 6,1 km/h (2 Bft)
05.09.2013 12:00 22,8 C 66 % 1014,4 hPa 0,0 l/m S-SO 1,00 h 729 W/m 6,5 km/h (2 Bft)
05.09.2013 13:00 25,3 C 53 % 1013,8 hPa 0,0 l/m S 1,00 h 760 W/m 6,0 km/h (2 Bft)
05.09.2013 14:00 27,3 C 49 % 1013,0 hPa 0,0 l/m SO 1,00 h 735 W/m 6,4 km/h (2 Bft)
05.09.2013 15:00 28,8 C 46 % 1012,4 hPa 0,0 l/m O-NO 1,00 h 649 W/m 7,5 km/h (2 Bft)
05.09.2013 16:00 29,9 C 43 % 1011,8 hPa 0,0 l/m O-SO 1,00 h 533 W/m 6,4 km/h (2 Bft)
05.09.2013 17:00 29,4 C 44 % 1011,2 hPa 0,0 l/m NO 1,00 h 383 W/m 10,7 km/h (2 Bft)
05.09.2013 18:00 27,8 C 49 % 1010,8 hPa 0,0 l/m O-NO 0,92 h 190 W/m 12,9 km/h (3 Bft)
05.09.2013 19:00 25,6 C 54 % 1010,7 hPa 0,0 l/m O 0,00 h 19 W/m 8,9 km/h (2 Bft)
05.09.2013 20:00 23,2 C 61 % 1011,2 hPa 0,0 l/m N 0,00 h 0 W/m 1,7 km/h (1 Bft)
05.09.2013 21:00 20,6 C 68 % 1011,4 hPa 0,0 l/m N 0,00 h 0 W/m 2,0 km/h (1 Bft)
05.09.2013 22:00 18,8 C 73 % 1011,2 hPa 0,0 l/m N 0,00 h 0 W/m 1,6 km/h (1 Bft)
05.09.2013 23:00 17,5 C 76 % 1011,1 hPa 0,0 l/m N 0,00 h 0 W/m 1,5 km/h (1 Bft)
06.09.2013 00:00 16,6 C 79 % 1010,9 hPa 0,0 l/m O-NO 0,00 h 0 W/m 2,4 km/h (1 Bft)
06.09.2013 01:00 16,0 C 81 % 1010,6 hPa 0,0 l/m N-NO 0,00 h 0 W/m 4,8 km/h (1 Bft)
06.09.2013 02:00 15,5 C 83 % 1010,3 hPa 0,0 l/m N 0,00 h 0 W/m 3,3 km/h (1 Bft)
06.09.2013 03:00 14,9 C 85 % 1010,1 hPa 0,0 l/m N 0,00 h 0 W/m 1,3 km/h (1 Bft)
06.09.2013 04:00 14,1 C 86 % 1010,0 hPa 0,0 l/m N 0,00 h 0 W/m 0,9 km/h (0 Bft)
06.09.2013 05:00 13,5 C 89 % 1009,7 hPa 0,0 l/m N 0,00 h 0 W/m 1,5 km/h (1 Bft)
06.09.2013 06:00 13,1 C 90 % 1009,7 hPa 0,0 l/m N 0,00 h 7 W/m 0,5 km/h (0 Bft)
06.09.2013 07:00 13,2 C 92 % 1010,0 hPa 0,0 l/m N 0,00 h 39 W/m 2,9 km/h (1 Bft)
06.09.2013 08:00 14,7 C 90 % 1010,3 hPa 0,0 l/m N-NO 0,75 h 179 W/m 3,5 km/h (1 Bft)
06.09.2013 09:00 17,2 C 82 % 1010,3 hPa 0,0 l/m N-NO 1,00 h 346 W/m 3,6 km/h (1 Bft)
06.09.2013 10:00 19,4 C 77 % 1010,3 hPa 0,0 l/m O-SO 0,92 h 474 W/m 5,2 km/h (1 Bft)
06.09.2013 11:00 21,4 C 73 % 1010,1 hPa 0,0 l/m SO 1,00 h 618 W/m 6,3 km/h (2 Bft)
06.09.2013 12:00 23,9 C 67 % 1009,8 hPa 0,0 l/m SO 1,00 h 695 W/m 9,3 km/h (2 Bft)
06.09.2013 13:00 26,0 C 62 % 1009,3 hPa 0,0 l/m S-SW 1,00 h 721 W/m 12,6 km/h (3 Bft)
06.09.2013 14:00 27,7 C 54 % 1009,0 hPa 0,0 l/m SW 1,00 h 696 W/m 11,0 km/h (2 Bft)
06.09.2013 15:00 29,1 C 48 % 1008,7 hPa 0,0 l/m S 0,92 h 592 W/m 10,3 km/h (2 Bft)
06.09.2013 16:00 29,5 C 46 % 1008,5 hPa 0,0 l/m S-SO 1,00 h 539 W/m 11,7 km/h (2 Bft)
06.09.2013 17:00 29,3 C 44 % 1008,4 hPa 0,0 l/m S 0,92 h 367 W/m 7,9 km/h (2 Bft)
06.09.2013 18:00 28,0 C 49 % 1008,5 hPa 0,0 l/m S-SW 0,92 h 185 W/m 5,5 km/h (1 Bft)
06.09.2013 19:00 25,9 C 57 % 1008,8 hPa 0,0 l/m N 0,00 h 18 W/m 0,5 km/h (0 Bft)
06.09.2013 20:00 22,9 C 65 % 1009,4 hPa 0,0 l/m N 0,00 h 0 W/m 0,3 km/h (0 Bft)
06.09.2013 21:00 20,7 C 73 % 1010,0 hPa 0,0 l/m N 0,00 h 0 W/m 0,3 km/h (0 Bft)
06.09.2013 22:00 19,3 C 78 % 1010,2 hPa 0,0 l/m N 0,00 h 0 W/m 0,0 km/h (0 Bft)
06.09.2013 23:00 18,3 C 82 % 1010,7 hPa 0,0 l/m S-SW 0,00 h 0 W/m 1,3 km/h (1 Bft)
07.09.2013 00:00 17,6 C 84 % 1010,7 hPa 0,0 l/m N 0,00 h 0 W/m 0,7 km/h (0 Bft)
07.09.2013 01:00 16,8 C 86 % 1010,6 hPa 0,0 l/m N 0,00 h 0 W/m 0,3 km/h (0 Bft)
07.09.2013 02:00 16,0 C 88 % 1011,0 hPa 0,0 l/m N 0,00 h 0 W/m 0,1 km/h (0 Bft)
07.09.2013 03:00 15,2 C 90 % 1011,5 hPa 0,0 l/m N 0,00 h 0 W/m 0,0 km/h (0 Bft)
07.09.2013 04:00 14,8 C 92 % 1012,0 hPa 0,0 l/m N 0,00 h 0 W/m 0,0 km/h (0 Bft)
07.09.2013 05:00 14,5 C 93 % 1012,6 hPa 0,0 l/m N 0,00 h 0 W/m 0,0 km/h (0 Bft)
07.09.2013 06:00 14,2 C 94 % 1013,2 hPa 0,0 l/m S-SW 0,00 h 6 W/m 1,2 km/h (1 Bft)
07.09.2013 07:00 14,4 C 95 % 1013,7 hPa 0,0 l/m N 0,00 h 32 W/m 0,9 km/h (0 Bft)
07.09.2013 08:00 15,8 C 95 % 1014,3 hPa 0,0 l/m N 0,67 h 155 W/m 0,8 km/h (0 Bft)
07.09.2013 09:00 18,7 C 87 % 1014,7 hPa 0,0 l/m S-SW 0,92 h 296 W/m 3,7 km/h (1 Bft)
07.09.2013 10:00 20,5 C 78 % 1015,1 hPa 0,0 l/m SO 0,75 h 412 W/m 5,5 km/h (1 Bft)
07.09.2013 11:00 21,7 C 73 % 1014,8 hPa 0,0 l/m O-SO 1,00 h 611 W/m 7,1 km/h (2 Bft)
07.09.2013 12:00 23,1 C 68 % 1014,3 hPa 0,0 l/m SO 1,00 h 683 W/m 4,7 km/h (1 Bft)
07.09.2013 13:00 24,8 C 60 % 1014,1 hPa 0,0 l/m O-SO 1,00 h 712 W/m 8,0 km/h (2 Bft)
07.09.2013 14:00 26,2 C 55 % 1013,6 hPa 0,0 l/m O 0,92 h 615 W/m 9,8 km/h (2 Bft)
07.09.2013 15:00 26,9 C 51 % 1013,1 hPa 0,0 l/m O 1,00 h 480 W/m 9,9 km/h (2 Bft)
07.09.2013 16:00 27,0 C 52 % 1012,9 hPa 0,0 l/m O-NO 0,75 h 387 W/m 13,4 km/h (3 Bft)
07.09.2013 17:00 26,5 C 54 % 1013,1 hPa 0,0 l/m O-NO 0,58 h 249 W/m 12,4 km/h (3 Bft)
07.09.2013 18:00 25,5 C 57 % 1013,1 hPa 0,0 l/m O-NO 0,83 h 153 W/m 10,9 km/h (2 Bft)
07.09.2013 19:00 24,2 C 63 % 1013,0 hPa 0,0 l/m O-NO 0,00 h 11 W/m 5,9 km/h (2 Bft)
07.09.2013 20:00 22,5 C 70 % 1012,9 hPa 0,0 l/m N 0,00 h 0 W/m 0,5 km/h (0 Bft)
07.09.2013 21:00 20,6 C 78 % 1012,9 hPa 0,0 l/m NO 0,00 h 0 W/m 3,2 km/h (1 Bft)
07.09.2013 22:00 19,6 C 82 % 1012,6 hPa 0,0 l/m N 0,00 h 0 W/m 9,9 km/h (2 Bft)
07.09.2013 23:00 19,3 C 79 % 1012,3 hPa 0,0 l/m N 0,00 h 0 W/m 7,0 km/h (2 Bft)
08.09.2013 00:00 19,1 C 77 % 1012,1 hPa 0,0 l/m N 0,00 h 0 W/m 5,1 km/h (1 Bft)
08.09.2013 01:00 18,4 C 78 % 1011,6 hPa 0,0 l/m N 0,00 h 0 W/m 1,6 km/h (1 Bft)
08.09.2013 02:00 18,1 C 81 % 1012,2 hPa 0,0 l/m W 0,00 h 0 W/m 12,6 km/h (3 Bft)
08.09.2013 03:00 18,1 C 77 % 1013,3 hPa 0,0 l/m W-NW 0,00 h 0 W/m 19,7 km/h (3 Bft)
08.09.2013 04:00 17,0 C 77 % 1013,9 hPa 0,0 l/m W 0,00 h 0 W/m 16,9 km/h (3 Bft)
08.09.2013 05:00 16,3 C 79 % 1014,4 hPa 0,0 l/m W-SW 0,00 h 0 W/m 8,2 km/h (2 Bft)
08.09.2013 06:00 15,9 C 82 % 1014,8 hPa 0,0 l/m W-SW 0,00 h 0 W/m 7,9 km/h (2 Bft)
08.09.2013 07:00 15,7 C 86 % 1014,9 hPa 0,0 l/m SW 0,00 h 26 W/m 8,3 km/h (2 Bft)
08.09.2013 08:00 15,8 C 86 % 1015,1 hPa 0,0 l/m SW 0,00 h 49 W/m 10,7 km/h (2 Bft)
08.09.2013 09:00 16,9 C 84 % 1015,5 hPa 0,0 l/m W-SW 0,25 h 219 W/m 9,5 km/h (2 Bft)
08.09.2013 10:00 18,1 C 78 % 1016,1 hPa 0,0 l/m SW 0,00 h 171 W/m 14,0 km/h (3 Bft)
08.09.2013 11:00 18,9 C 75 % 1016,0 hPa 0,0 l/m W-SW 0,00 h 220 W/m 11,4 km/h (2 Bft)
08.09.2013 12:00 19,3 C 74 % 1016,2 hPa 0,0 l/m SW 0,00 h 191 W/m 13,3 km/h (3 Bft)
08.09.2013 13:00 19,0 C 81 % 1016,2 hPa 0,2 l/m SW 0,00 h 123 W/m 11,6 km/h (2 Bft)
08.09.2013 14:00 17,9 C 89 % 1016,2 hPa 0,2 l/m S-SW 0,00 h 95 W/m 10,9 km/h (2 Bft)
08.09.2013 15:00 17,4 C 91 % 1016,1 hPa 0,2 l/m SW 0,00 h 64 W/m 9,0 km/h (2 Bft)
08.09.2013 16:00 16,8 C 90 % 1016,1 hPa 0,2 l/m SW 0,00 h 30 W/m 7,2 km/h (2 Bft)
08.09.2013 17:00 16,4 C 92 % 1015,9 hPa 0,6 l/m SW 0,00 h 19 W/m 2,9 km/h (1 Bft)
08.09.2013 18:00 16,2 C 93 % 1015,5 hPa 0,4 l/m SW 0,00 h 18 W/m 5,2 km/h (1 Bft)
08.09.2013 19:00 15,8 C 94 % 1015,5 hPa 0,4 l/m N 0,00 h 8 W/m 1,9 km/h (1 Bft)
08.09.2013 20:00 15,2 C 94 % 1015,8 hPa 0,8 l/m N 0,00 h 0 W/m 2,0 km/h (1 Bft)
08.09.2013 21:00 15,0 C 95 % 1015,8 hPa 1,8 l/m N 0,00 h 0 W/m 0,8 km/h (0 Bft)
08.09.2013 22:00 14,8 C 95 % 1015,4 hPa 0,4 l/m N 0,00 h 0 W/m 1,9 km/h (1 Bft)
08.09.2013 23:00 14,8 C 96 % 1015,4 hPa 0,8 l/m SW 0,00 h 0 W/m 4,3 km/h (1 Bft)
Min-Datum _ 02.09.13 05.09.13 06.09.13 - - - - 02.09.13
_ Min-Zeit 04:25 17:00 17:20 - - - - 00:00
Minimum _ 7,8 C 40 % 1008,3 hPa - - - - 0,0 km/h (0 Bft)
Max-Datum _ 05.09.13 05.09.13 03.09.13 08.09.13 - 02.09.13 02.09.13 08.09.13
_ Max-Zeit 16:30 07:35 00:20 21:15 - 10:40 15:15 04:15
Maximum _ 30,0 C 96 % 1026,1 hPa 1,8 l/m - 0,08 h 867 W/m 29,0 km/h
W (5 Bft)
Durchschnitt _ 18,4 C 74 % 1017,4 hPa #6,0 l/m SW #58:00 h 338 W/m 5,6 km/h (1 Bft)